Time;durP1;ratioP1;P1;durP2;ratioP2;P2;SDS_P1;SDS_P2;PMS_P1;PMS_P2;Temp;Humidity;BMP_temperature;BMP_pressure;BME280_temperature;BME280_humidity;BME280_pressure;Samples;Min_cycle;Max_cycle;Signal;HPM_P1;HPM_P2
2022/05/26 00:01:46;;;;;;;4.15;2.67;;;;;;;13.34;67.09;100561.93;1750998;82;20984;-67
2022/05/26 00:04:12;;;;;;;2.83;2.02;;;;;;;13.34;67.12;100568.63;1749399;82;21358;-66
2022/05/26 00:06:38;;;;;;;4.10;2.33;;;;;;;13.33;67.13;100568.83;1750884;82;21059;-67
2022/05/26 00:09:04;;;;;;;4.78;2.42;;;;;;;13.30;67.14;100565.98;1750361;82;21015;-67
2022/05/26 00:11:33;;;;;;;4.62;2.50;;;;;;;13.30;67.17;100565.18;1732399;82;21079;-67
2022/05/26 00:14:07;;;;;;;6.37;2.37;;;;;;;13.30;67.19;100571.34;1726128;82;21051;-66
2022/05/26 00:16:31;;;;;;;9.13;2.20;;;;;;;13.28;67.18;100569.37;1712530;82;21008;-67
2022/05/26 00:18:57;;;;;;;4.20;2.08;;;;;;;13.25;67.18;100573.76;1717158;82;21153;-67
2022/05/26 00:21:23;;;;;;;3.67;2.10;;;;;;;13.23;67.20;100573.09;1751096;81;20997;-66
2022/05/26 00:23:49;;;;;;;7.62;2.20;;;;;;;13.19;67.19;100569.14;1755654;81;21026;-67
2022/05/26 00:26:15;;;;;;;4.25;2.35;;;;;;;13.14;67.20;100567.50;1753411;81;21045;-67
2022/05/26 00:28:41;;;;;;;5.95;2.15;;;;;;;13.12;67.23;100568.70;1747042;81;21610;-67
2022/05/26 00:31:08;;;;;;;4.30;2.00;;;;;;;13.06;67.21;100570.22;1722334;83;22084;-67
2022/05/26 00:33:33;;;;;;;2.92;1.90;;;;;;;13.04;67.24;100572.26;1715119;82;20877;-66
2022/05/26 00:36:07;;;;;;;3.35;2.40;;;;;;;12.97;67.23;100565.97;1719501;82;20857;-66
2022/05/26 00:38:34;;;;;;;6.78;2.27;;;;;;;12.93;67.28;100567.34;1720671;82;20973;-66
2022/05/26 00:41:02;;;;;;;4.22;2.17;;;;;;;12.90;67.33;100565.02;1722343;83;20989;-67
2022/05/26 00:43:29;;;;;;;6.95;2.58;;;;;;;12.86;67.35;100573.08;1722277;83;21124;-67
2022/05/26 00:46:06;;;;;;;3.25;2.05;;;;;;;12.79;67.38;100566.28;1721623;81;21583;-67
2022/05/26 00:48:41;;;;;;;5.30;2.08;;;;;;;12.76;67.44;100569.33;1699447;84;21007;-69
2022/05/26 00:51:07;;;;;;;3.83;1.90;;;;;;;12.75;67.52;100566.81;1698422;84;21022;-66
2022/05/26 00:53:38;;;;;;;4.17;1.42;;;;;;;12.72;67.55;100563.16;1699023;84;21061;-66
2022/05/26 00:56:21;;;;;;;5.83;2.27;;;;;;;12.71;67.62;100570.36;1713792;82;21151;-67
2022/05/26 00:58:52;;;;;;;4.65;2.12;;;;;;;12.70;67.68;100564.67;1728728;83;20942;-66
2022/05/26 01:01:18;;;;;;;4.25;2.22;;;;;;;12.70;67.76;100563.86;1728517;83;21018;-66
2022/05/26 01:04:00;;;;;;;3.10;1.95;;;;;;;12.67;67.82;100561.52;1728203;83;21042;-67
2022/05/26 01:06:34;;;;;;;4.37;2.58;;;;;;;12.65;67.88;100572.92;1728524;83;21020;-67
2022/05/26 01:09:05;;;;;;;8.30;2.40;;;;;;;12.64;67.98;100575.27;1728357;83;21119;-66
2022/05/26 01:11:36;;;;;;;6.20;2.17;;;;;;;12.64;68.06;100576.59;1728588;83;21101;-67
2022/05/26 01:14:22;;;;;;;2.12;1.62;;;;;;;12.62;68.14;100579.97;1727767;81;21042;-67
2022/05/26 01:17:12;;;;;;;6.50;2.00;;;;;;;12.59;68.22;100577.66;1725146;82;21654;-67
2022/05/26 01:20:18;;;;;;;6.03;2.25;;;;;;;12.56;68.33;100579.36;1749367;81;21091;-66
2022/05/26 01:23:12;;;;;;;3.17;2.00;;;;;;;12.53;68.43;100565.80;1735119;81;22078;-67
2022/05/26 01:25:50;;;;;;;4.47;2.20;;;;;;;12.52;68.55;100563.63;1735524;82;21022;-67
2022/05/26 01:28:58;;;;;;;3.67;2.20;;;;;;;12.53;68.65;100571.16;1701566;84;21069;-67
2022/05/26 01:31:49;;;;;;;4.28;2.20;;;;;;;12.52;68.75;100562.30;1714692;82;21005;-67
2022/05/26 01:34:56;;;;;;;3.52;1.92;;;;;;;12.51;68.88;100566.00;1712982;83;21062;-67
2022/05/26 01:37:56;;;;;;;4.42;2.10;;;;;;;12.50;68.99;100569.68;1698127;83;21175;-68
2022/05/26 01:40:43;;;;;;;4.78;2.17;;;;;;;12.46;69.11;100567.53;1696997;83;20978;-68
2022/05/26 01:43:33;;;;;;;3.37;2.42;;;;;;;12.40;69.21;100567.75;1701554;83;21499;-67
2022/05/26 01:46:22;;;;;;;4.00;2.00;;;;;;;12.36;69.36;100565.09;1713393;83;21045;-68
2022/05/26 01:49:00;;;;;;;3.67;2.60;;;;;;;12.33;69.47;100564.12;1713941;83;20997;-67
2022/05/26 01:51:33;;;;;;;4.60;2.15;;;;;;;12.30;69.57;100563.14;1713514;83;21120;-68
2022/05/26 01:54:20;;;;;;;5.92;2.60;;;;;;;12.27;69.69;100555.47;1712978;83;20998;-67
2022/05/26 01:56:57;;;;;;;5.35;2.75;;;;;;;12.26;69.78;100560.98;1712926;83;21025;-68
2022/05/26 01:59:27;;;;;;;5.35;2.75;;;;;;;12.21;69.92;100563.38;1714145;83;21061;-67
2022/05/26 02:02:07;;;;;;;;;;;;;;;12.20;70.03;100560.36;1716418;83;21033;-68
2022/05/26 02:04:48;;;;;;;4.42;2.30;;;;;;;12.16;70.13;100558.55;1670092;85;20974;-67
2022/05/26 02:07:26;;;;;;;5.28;2.47;;;;;;;12.15;70.25;100556.88;1670294;86;21074;-67
2022/05/26 02:09:53;;;;;;;6.03;2.65;;;;;;;12.14;70.35;100559.73;1695815;84;21075;-67
2022/05/26 02:12:27;;;;;;;4.53;2.95;;;;;;;12.13;70.46;100561.58;1700967;84;21018;-68
2022/05/26 02:14:58;;;;;;;7.80;2.40;;;;;;;12.10;70.57;100555.25;1700436;84;21082;-68
2022/05/26 02:17:33;;;;;;;3.75;2.35;;;;;;;12.08;70.68;100553.23;1700325;84;21132;-67
2022/05/26 02:20:19;;;;;;;3.08;2.77;;;;;;;12.06;70.79;100551.26;1700434;84;21058;-67
2022/05/26 02:22:59;;;;;;;2.50;2.30;;;;;;;12.03;70.89;100556.42;1666071;84;21007;-67
2022/05/26 02:25:26;;;;;;;5.28;2.87;;;;;;;12.00;71.00;100558.62;1676958;83;21475;-67
2022/05/26 02:27:53;;;;;;;3.60;2.37;;;;;;;12.00;71.11;100558.62;1751884;81;20983;-67
2022/05/26 02:30:21;;;;;;;3.75;2.35;;;;;;;11.98;71.21;100555.30;1733866;82;21196;-67
2022/05/26 02:32:51;;;;;;;2.65;2.15;;;;;;;11.99;71.31;100555.64;1733511;82;20981;-67
2022/05/26 02:35:28;;;;;;;5.85;2.40;;;;;;;12.01;71.42;100557.62;1733610;82;21016;-67
2022/05/26 02:38:04;;;;;;;7.87;2.90;;;;;;;12.07;71.54;100559.58;1733361;82;20961;-67
2022/05/26 02:40:30;;;;;;;7.67;2.80;;;;;;;12.14;71.67;100555.20;1731784;82;21032;-68
2022/05/26 02:43:01;;;;;;;2.90;2.17;;;;;;;12.20;71.72;100552.34;1732546;82;21157;-68
2022/05/26 02:46:08;;;;;;;4.42;2.33;;;;;;;12.25;71.79;100546.78;1708765;82;21496;-67
2022/05/26 02:49:11;;;;;;;6.40;2.30;;;;;;;12.29;71.87;100552.10;1706970;83;21032;-68
2022/05/26 02:52:09;;;;;;;6.15;3.47;;;;;;;12.35;71.95;100547.91;1707476;84;21629;-68
2022/05/26 02:54:53;;;;;;;3.85;2.30;;;;;;;12.40;72.00;100545.02;1707492;84;21001;-67
2022/05/26 02:57:36;;;;;;;3.60;2.83;;;;;;;12.45;72.03;100551.98;1749580;81;21329;-67
2022/05/26 03:00:16;;;;;;;7.35;2.37;;;;;;;12.48;72.06;100550.31;1733427;82;21036;-68
2022/05/26 03:02:58;;;;;;;4.17;2.17;;;;;;;12.53;72.09;100549.76;1733601;82;21055;-67
2022/05/26 03:05:29;;;;;;;3.87;2.08;;;;;;;12.55;72.08;100553.10;1733359;82;21044;-68
2022/05/26 03:07:59;;;;;;;3.85;1.80;;;;;;;12.58;72.09;100551.91;1733475;82;20985;-67
2022/05/26 03:10:26;;;;;;;;;;;;;;;12.60;72.09;100545.86;1734551;82;21153;-68
2022/05/26 03:12:54;;;;;;;6.65;2.12;;;;;;;12.63;72.08;100552.21;1733733;82;20133;-67
2022/05/26 03:15:20;;;;;;;3.75;1.90;;;;;;;12.65;72.05;100546.16;1733386;82;20973;-67
2022/05/26 03:17:46;;;;;;;5.97;2.35;;;;;;;12.68;72.03;100545.30;1733484;82;21012;-67
2022/05/26 03:20:13;;;;;;;6.55;2.20;;;;;;;12.71;72.00;100547.61;1732456;82;21055;-67
2022/05/26 03:22:39;;;;;;;5.80;2.12;;;;;;;12.73;71.95;100542.92;1733821;82;21467;-67
2022/05/26 03:25:06;;;;;;;2.98;2.10;;;;;;;12.76;71.91;100543.06;1723483;82;21006;-67
2022/05/26 03:27:33;;;;;;;4.58;2.00;;;;;;;12.78;71.85;100541.02;1704427;84;21026;-67
2022/05/26 03:29:59;;;;;;;4.37;2.10;;;;;;;12.81;71.78;100547.35;1706047;84;20986;-67
2022/05/26 03:32:25;;;;;;;4.33;2.20;;;;;;;12.82;71.74;100549.02;1705813;84;21030;-68
2022/05/26 03:43:05;;;;;;;3.08;2.10;;;;;;;12.93;71.39;100560.14;1704867;83;21541;-68
2022/05/26 03:45:33;;;;;;;5.03;2.25;;;;;;;12.98;71.28;100558.27;1705790;84;22202;-68
2022/05/26 03:47:59;;;;;;;4.12;2.27;;;;;;;12.99;71.18;100555.89;1706251;84;21211;-67
2022/05/26 03:50:25;;;;;;;4.60;2.42;;;;;;;13.02;71.10;100561.72;1705907;84;21471;-67
2022/05/26 03:52:51;;;;;;;5.40;2.80;;;;;;;13.03;71.00;100557.20;1705799;84;20999;-68
2022/05/26 03:55:19;;;;;;;4.00;2.20;;;;;;;13.05;70.92;100560.54;1705860;84;21017;-68
2022/05/26 03:57:45;;;;;;;6.78;2.45;;;;;;;13.07;70.84;100561.69;1703708;82;21570;-67
2022/05/26 04:00:13;;;;;;;8.38;3.05;;;;;;;13.08;70.72;100566.87;1706096;84;21856;-68
2022/05/26 04:02:39;;;;;;;6.67;2.52;;;;;;;13.11;70.69;100565.70;1705405;84;21027;-68
2022/05/26 04:05:06;;;;;;;2.47;1.98;;;;;;;13.13;70.58;100569.84;1706132;84;21058;-68
2022/05/26 04:07:34;;;;;;;5.12;1.95;;;;;;;13.17;70.49;100566.30;1705876;84;21062;-68
2022/05/26 04:10:03;;;;;;;3.83;2.20;;;;;;;13.20;70.41;100565.42;1705676;84;21010;-68
2022/05/26 04:12:29;;;;;;;3.15;2.05;;;;;;;13.26;70.29;100565.22;1704317;84;21126;-68
2022/05/26 04:14:55;;;;;;;2.25;2.05;;;;;;;13.28;70.20;100564.02;1705670;84;21018;-68
2022/05/26 04:17:22;;;;;;;5.05;2.08;;;;;;;13.31;70.12;100555.61;1706011;84;21009;-68
2022/05/26 04:19:48;;;;;;;4.25;2.47;;;;;;;13.33;70.05;100556.27;1704937;84;21002;-68
2022/05/26 04:22:18;;;;;;;3.15;2.02;;;;;;;13.40;69.96;100551.84;1706170;84;21380;-68
2022/05/26 04:24:46;;;;;;;4.45;2.00;;;;;;;13.47;69.88;100555.41;1702679;82;21790;-68
2022/05/26 04:27:14;;;;;;;2.40;1.62;;;;;;;13.50;69.76;100557.75;1728527;82;21149;-68
2022/05/26 04:29:40;;;;;;;4.87;1.85;;;;;;;13.55;69.70;100554.49;1742136;82;20991;-67
2022/05/26 04:32:07;;;;;;;2.80;1.60;;;;;;;13.60;69.59;100555.29;1729304;83;21067;-68
2022/05/26 04:34:33;;;;;;;4.40;2.00;;;;;;;13.64;69.48;100549.38;1729575;83;21594;-68
2022/05/26 04:37:00;;;;;;;2.80;1.90;;;;;;;13.63;69.25;100528.11;1741904;81;21029;-68
2022/05/26 04:39:26;;;;;;;4.20;1.40;;;;;;;13.63;69.25;100528.11;1728550;82;21051;-68
2022/05/26 04:41:52;;;;;;;10.00;2.40;;;;;;;13.81;69.24;100556.70;1729338;83;20999;-68
2022/05/26 04:44:19;;;;;;;11.40;1.80;;;;;;;13.87;69.11;100560.80;1741830;82;21089;-68
2022/05/26 04:46:46;;;;;;;3.00;1.70;;;;;;;13.94;68.86;100570.27;1729464;83;21015;-68
2022/05/26 04:49:12;;;;;;;3.42;1.77;;;;;;;13.94;68.86;100570.27;1729398;81;21040;-68
2022/05/26 04:51:38;;;;;;;3.15;1.65;;;;;;;14.02;68.57;100572.84;1729505;82;20947;-68
2022/05/26 04:54:05;;;;;;;2.35;1.57;;;;;;;14.02;68.57;100572.84;1741768;81;21006;-68
2022/05/26 04:56:31;;;;;;;3.47;1.45;;;;;;;14.00;68.46;100566.86;1729176;83;21071;-68
2022/05/26 04:58:57;;;;;;;1.55;1.45;;;;;;;14.00;68.46;100566.86;1742012;82;21543;-68
2022/05/26 05:01:23;;;;;;;5.28;1.85;;;;;;;13.93;68.22;100551.20;1729376;82;21875;-68
2022/05/26 05:03:49;;;;;;;6.97;2.02;;;;;;;14.00;68.07;100568.20;1729078;83;21000;-68
2022/05/26 05:06:16;;;;;;;4.30;1.70;;;;;;;13.99;67.92;100571.89;1742040;82;21053;-68
2022/05/26 05:08:43;;;;;;;2.87;1.30;;;;;;;13.99;67.64;100555.30;1729401;83;21060;-68
2022/05/26 05:11:09;;;;;;;7.28;1.60;;;;;;;13.99;67.64;100555.30;1726195;82;21075;-68
2022/05/26 05:13:36;;;;;;;5.28;1.40;;;;;;;14.17;67.64;100568.30;1742198;82;21117;-68
2022/05/26 05:16:10;;;;;;;12.47;2.27;;;;;;;14.21;67.51;100564.22;1729020;81;21008;-68
2022/05/26 05:18:36;;;;;;;1.70;1.10;;;;;;;14.27;67.39;100576.86;1741977;82;21022;-68
2022/05/26 05:21:08;;;;;;;5.70;1.25;;;;;;;14.33;67.26;100577.44;1729483;83;21022;-68
2022/05/26 05:23:37;;;;;;;2.25;1.62;;;;;;;14.39;67.11;100578.58;1729542;81;21059;-68
2022/05/26 05:26:03;;;;;;;6.92;1.50;;;;;;;14.47;67.00;100567.20;1745385;81;21306;-68
2022/05/26 05:28:33;;;;;;;2.27;1.35;;;;;;;14.61;66.90;100570.01;1747804;81;20990;-68
2022/05/26 05:31:06;;;;;;;3.12;1.30;;;;;;;14.71;66.75;100574.54;1749012;82;20943;-68
2022/05/26 05:33:39;;;;;;;4.03;1.70;;;;;;;14.81;66.62;100573.73;1723052;83;20985;-68
2022/05/26 05:36:09;;;;;;;4.47;1.60;;;;;;;14.91;66.43;100579.59;1722022;83;21037;-68
2022/05/26 05:38:38;;;;;;;7.35;1.45;;;;;;;15.02;66.27;100575.05;1722508;82;21556;-68
2022/05/26 05:41:05;;;;;;;2.75;1.30;;;;;;;15.09;66.06;100582.65;1722725;83;21009;-68
2022/05/26 05:43:31;;;;;;;3.33;1.30;;;;;;;15.13;65.86;100581.75;1696039;83;21462;-68
2022/05/26 05:45:57;;;;;;;3.65;1.37;;;;;;;15.21;65.70;100585.61;1722848;83;21129;-68
2022/05/26 05:48:24;;;;;;;5.00;1.42;;;;;;;15.30;65.51;100587.98;1722913;83;21056;-68
2022/05/26 05:50:51;;;;;;;4.62;1.47;;;;;;;15.42;65.28;100586.90;1722566;83;21147;-68
2022/05/26 05:53:17;;;;;;;5.08;1.72;;;;;;;15.50;65.05;100589.48;1721575;82;21752;-68
2022/05/26 05:55:43;;;;;;;4.45;1.65;;;;;;;15.58;64.83;100589.84;1722964;83;21498;-68
2022/05/26 05:58:10;;;;;;;4.90;1.90;;;;;;;15.64;64.54;100587.70;1696048;83;21560;-68
2022/05/26 06:00:38;;;;;;;4.03;1.52;;;;;;;15.74;64.30;100589.51;1722288;82;21029;-68
2022/05/26 06:03:04;;;;;;;3.35;1.55;;;;;;;15.80;64.11;100596.77;1722561;83;21166;-68
2022/05/26 06:05:31;;;;;;;3.60;1.55;;;;;;;15.87;63.94;100593.59;1721346;82;20969;-68
2022/05/26 06:07:58;;;;;;;6.05;1.77;;;;;;;15.91;63.76;100596.21;1722702;83;20998;-69
2022/05/26 06:10:24;;;;;;;2.58;1.72;;;;;;;15.94;63.66;100601.19;1720300;82;21052;-68
2022/05/26 06:12:50;;;;;;;2.90;1.67;;;;;;;15.91;63.38;100601.59;1722869;83;21482;-68
2022/05/26 06:15:16;;;;;;;5.35;1.80;;;;;;;15.82;63.13;100600.11;1722908;83;21269;-68
2022/05/26 06:17:43;;;;;;;5.33;2.35;;;;;;;15.79;62.93;100595.13;1706579;82;21460;-68
2022/05/26 06:20:10;;;;;;;6.00;2.72;;;;;;;15.81;62.80;100600.62;1712490;82;21611;-68
2022/05/26 06:22:42;;;;;;;9.93;4.60;;;;;;;15.84;62.68;100602.07;1703370;83;21035;-68
2022/05/26 06:25:09;;;;;;;11.45;6.30;;;;;;;15.88;62.54;100602.83;1716832;82;21052;-68
2022/05/26 06:30:21;;;;;;;5.58;2.70;;;;;;;16.05;62.24;100602.48;1708971;84;20986;-68
2022/05/26 06:38:25;;;;;;;5.83;2.90;;;;;;;16.27;61.86;100606.20;1714839;82;21050;-67
2022/05/26 06:40:51;;;;;;;4.80;2.00;;;;;;;16.26;61.61;100602.36;1719078;82;21041;-68
2022/05/26 06:43:18;;;;;;;6.35;1.92;;;;;;;16.30;61.50;100593.69;1718571;82;21073;-69
2022/05/26 06:45:45;;;;;;;14.90;4.47;;;;;;;16.37;61.36;100602.61;1742685;81;21094;-68
2022/05/26 06:48:11;;;;;;;13.68;4.08;;;;;;;16.56;61.25;100598.87;1736589;82;20947;-69
2022/05/26 06:50:38;;;;;;;7.72;2.20;;;;;;;16.75;61.15;100604.80;1741895;81;21042;-69
2022/05/26 06:53:05;;;;;;;38.58;7.55;;;;;;;16.91;61.00;100603.90;1746932;81;21145;-69
2022/05/26 06:55:31;;;;;;;6.45;2.05;;;;;;;17.04;60.91;100599.03;1739760;81;21496;-69
2022/05/26 06:57:57;;;;;;;7.08;2.33;;;;;;;17.13;60.74;100600.50;1746749;80;21503;-69
2022/05/26 07:00:23;;;;;;;8.28;3.15;;;;;;;17.22;60.58;100601.09;1746830;82;21014;-69
2022/05/26 07:02:51;;;;;;;4.65;2.50;;;;;;;17.32;60.41;100602.34;1746444;82;20999;-69
2022/05/26 07:05:17;;;;;;;5.60;2.15;;;;;;;17.48;60.29;100604.62;1746835;82;21280;-69
2022/05/26 07:07:44;;;;;;;5.97;1.70;;;;;;;17.59;60.09;100613.13;1741515;81;21013;-69
2022/05/26 07:10:13;;;;;;;3.70;2.10;;;;;;;17.70;59.91;100609.77;1730036;81;20867;-69
2022/05/26 07:12:40;;;;;;;4.17;2.00;;;;;;;17.82;59.70;100611.62;1725427;81;21579;-69
2022/05/26 07:15:08;;;;;;;5.25;2.08;;;;;;;17.81;59.26;100606.42;1706020;84;21029;-69
2022/05/26 07:17:36;;;;;;;4.25;2.27;;;;;;;17.79;59.03;100612.05;1734889;81;21118;-69
2022/05/26 07:20:02;;;;;;;2.87;2.05;;;;;;;17.87;58.74;100603.70;1731439;82;21037;-69
2022/05/26 07:22:30;;;;;;;7.47;2.50;;;;;;;17.92;58.48;100613.87;1731329;82;21062;-69
2022/05/26 07:24:56;;;;;;;5.03;2.35;;;;;;;17.92;58.22;100611.17;1731130;82;21542;-69
2022/05/26 07:27:22;;;;;;;6.20;1.50;;;;;;;18.00;58.11;100613.64;1735413;81;21085;-68
2022/05/26 07:29:49;;;;;;;5.97;1.50;;;;;;;18.03;57.71;100618.61;1752236;81;22015;-69
2022/05/26 07:32:15;;;;;;;5.47;2.00;;;;;;;17.99;57.48;100613.33;1752145;81;21066;-69
2022/05/26 07:34:41;;;;;;;5.30;2.33;;;;;;;17.94;57.26;100615.85;1744725;81;21057;-69
2022/05/26 07:42:36;;;;;;;5.53;1.60;;;;;;;18.28;56.76;100633.05;1727238;81;21487;-69
2022/05/26 07:45:03;;;;;;;3.05;1.27;;;;;;;18.39;56.63;100629.69;1748832;81;22209;-69
2022/05/26 07:47:29;;;;;;;5.03;1.67;;;;;;;18.51;56.44;100629.04;1706597;83;20992;-69
2022/05/26 07:49:55;;;;;;;8.13;1.98;;;;;;;18.54;56.17;100620.50;1729533;82;20973;-69
2022/05/26 07:52:21;;;;;;;5.35;1.72;;;;;;;18.63;56.02;100611.09;1731108;82;21053;-69
2022/05/26 07:54:47;;;;;;;4.87;1.55;;;;;;;18.72;55.76;100617.88;1741609;81;21459;-68
2022/05/26 07:57:27;;;;;;;5.22;1.50;;;;;;;18.87;55.67;100618.41;1709472;82;21275;-69
2022/05/26 07:59:53;;;;;;;2.70;1.05;;;;;;;19.08;55.61;100620.75;1706357;82;21057;-69
2022/05/26 08:02:19;;;;;;;4.78;1.22;;;;;;;19.24;55.26;100620.22;1701041;82;21691;-69
2022/05/26 08:04:46;;;;;;;3.80;1.67;;;;;;;19.29;55.08;100612.25;1716841;82;21464;-70
2022/05/26 08:07:12;;;;;;;7.47;1.90;;;;;;;19.51;55.01;100617.30;1705424;82;21152;-69
2022/05/26 08:09:38;;;;;;;6.37;1.50;;;;;;;19.61;54.75;100621.66;1714037;82;21036;-69
2022/05/26 08:12:07;;;;;;;6.83;1.90;;;;;;;19.56;54.49;100620.17;1693564;82;21501;-70
2022/05/26 08:14:34;;;;;;;113.57;17.90;;;;;;;19.70;54.33;100611.67;1705309;83;21052;-70
2022/05/26 08:17:01;;;;;;;49.53;8.60;;;;;;;19.74;54.16;100612.05;1733517;81;21010;-69
2022/05/26 08:19:28;;;;;;;7.47;1.80;;;;;;;19.85;53.96;100604.55;1736274;81;21209;-69
2022/05/26 08:21:54;;;;;;;14.20;2.95;;;;;;;20.15;53.90;100616.28;1715402;82;21053;-69
2022/05/26 08:24:20;;;;;;;5.15;1.67;;;;;;;20.46;53.54;100617.16;1743971;81;21064;-69
2022/05/26 08:26:47;;;;;;;4.60;1.50;;;;;;;20.16;53.01;100613.85;1734471;81;21053;-69
2022/05/26 08:29:13;;;;;;;5.85;1.40;;;;;;;20.06;52.73;100605.44;1733051;81;21033;-69
2022/05/26 08:31:39;;;;;;;2.72;1.42;;;;;;;20.08;52.45;100595.23;1743062;81;21372;-69
2022/05/26 08:34:05;;;;;;;8.10;1.10;;;;;;;20.40;52.28;100603.49;1738666;81;20987;-69
2022/05/26 08:36:33;;;;;;;5.45;1.70;;;;;;;20.52;51.80;100599.45;1726304;81;21035;-70
2022/05/26 08:38:59;;;;;;;5.37;2.02;;;;;;;20.34;51.61;100603.03;1741695;82;20975;-69
2022/05/26 08:41:28;;;;;;;4.85;1.45;;;;;;;20.29;51.42;100606.97;1736574;81;21014;-69
2022/05/26 08:43:59;;;;;;;7.90;2.02;;;;;;;20.32;50.84;100601.61;1730575;81;21152;-70
2022/05/26 08:46:29;;;;;;;8.15;2.27;;;;;;;20.64;50.89;100606.28;1741329;82;21471;-70
2022/05/26 08:49:09;;;;;;;3.95;0.95;;;;;;;20.88;50.43;100603.94;1730340;81;21082;-70
2022/05/26 08:52:15;;;;;;;5.17;1.40;;;;;;;20.87;49.73;100606.34;1718499;82;21041;-69
2022/05/26 08:54:52;;;;;;;3.52;1.47;;;;;;;20.97;49.48;100607.95;1741743;81;21042;-69
2022/05/26 08:57:39;;;;;;;16.20;1.40;;;;;;;21.18;49.29;100608.78;1709674;82;22085;-70
2022/05/26 09:00:08;;;;;;;6.35;0.90;;;;;;;21.60;49.11;100605.99;1730675;81;21088;-70
2022/05/26 09:02:36;;;;;;;2.58;0.82;;;;;;;21.59;48.35;100611.12;1703328;82;21031;-70
2022/05/26 09:05:14;;;;;;;2.67;0.70;;;;;;;21.34;47.82;100619.48;1704210;82;21441;-70
2022/05/26 09:13:41;;;;;;;3.95;1.10;;;;;;;20.46;47.08;100610.39;1728768;81;20995;-70
2022/05/26 09:16:07;;;;;;;1.62;0.80;;;;;;;20.38;47.28;100620.48;1728368;81;21083;-69
2022/05/26 09:18:33;;;;;;;7.35;1.25;;;;;;;20.68;47.41;100616.44;1706471;82;21026;-69
2022/05/26 09:21:24;;;;;;;5.25;1.27;;;;;;;21.08;47.32;100618.00;1705928;82;21016;-70
2022/05/26 09:23:51;;;;;;;11.35;1.60;;;;;;;20.84;47.00;100625.78;1728655;81;21846;-69
2022/05/26 09:26:19;;;;;;;6.72;1.50;;;;;;;20.28;47.07;100631.04;1731238;81;21010;-70
2022/05/26 09:28:51;;;;;;;2.55;0.90;;;;;;;20.06;47.27;100621.69;1738700;81;21123;-70
2022/05/26 09:31:34;;;;;;;0.82;0.80;;;;;;;19.85;47.35;100637.02;1738158;81;21044;-69
2022/05/26 09:34:24;;;;;;;4.67;1.22;;;;;;;20.33;47.78;100631.20;1702786;82;20979;-69
2022/05/26 09:37:00;;;;;;;4.42;0.65;;;;;;;20.87;47.60;100634.80;1728506;81;21151;-69
2022/05/26 09:39:34;;;;;;;2.75;0.95;;;;;;;20.80;47.03;100628.66;1715683;82;21062;-69
2022/05/26 09:41:58;;;;;;;4.47;1.05;;;;;;;20.78;46.95;100628.91;1712760;82;21098;-69
2022/05/26 09:44:50;;;;;;;3.20;0.65;;;;;;;21.10;47.10;100632.20;1716672;82;20994;-69
2022/05/26 09:47:37;;;;;;;3.70;1.52;;;;;;;21.21;46.83;100633.28;1712848;82;21002;-69
2022/05/26 09:50:09;;;;;;;2.25;0.90;;;;;;;21.40;46.77;100630.23;1733823;81;21787;-69
2022/05/26 09:52:44;;;;;;;5.97;1.12;;;;;;;21.55;46.61;100626.22;1714982;83;21488;-69
2022/05/26 09:55:32;;;;;;;3.58;0.95;;;;;;;21.43;46.31;100633.82;1733379;81;21051;-69
2022/05/26 09:58:29;;;;;;;7.15;0.85;;;;;;;21.54;46.33;100635.41;1738028;81;21051;-70
2022/05/26 10:01:01;;;;;;;5.25;1.02;;;;;;;21.48;46.08;100630.94;1742349;81;21056;-70
2022/05/26 10:03:54;;;;;;;6.92;1.10;;;;;;;21.54;46.08;100636.77;1740306;81;21951;-70
2022/05/26 10:06:51;;;;;;;5.50;1.25;;;;;;;21.69;46.09;100638.49;1734991;81;20993;-69
2022/05/26 10:09:37;;;;;;;6.85;1.05;;;;;;;21.87;46.07;100627.50;1727430;81;21044;-70
2022/05/26 10:12:29;;;;;;;7.22;1.12;;;;;;;21.78;45.53;100624.84;1739466;81;21024;-70
2022/05/26 10:15:09;;;;;;;6.72;1.00;;;;;;;21.70;45.03;100629.30;1732096;81;21054;-70
2022/05/26 10:18:14;;;;;;;8.70;1.17;;;;;;;21.39;45.11;100639.42;1740689;81;21055;-70
2022/05/26 10:20:54;;;;;;;17.42;1.52;;;;;;;20.78;44.92;100638.91;1700088;83;20995;-70
2022/05/26 10:23:41;;;;;;;2.60;0.95;;;;;;;19.98;45.24;100649.09;1731423;81;21024;-69
2022/05/26 10:26:32;;;;;;;5.35;1.20;;;;;;;19.69;45.74;100647.09;1694874;82;21036;-69
2022/05/26 10:29:35;;;;;;;10.08;1.27;;;;;;;19.63;46.21;100645.28;1731483;81;21006;-69
2022/05/26 10:32:12;;;;;;;4.10;1.37;;;;;;;19.76;46.62;100652.75;1731508;81;21490;-69
2022/05/26 10:35:18;;;;;;;4.62;1.12;;;;;;;19.82;46.87;100652.36;1732758;81;20981;-69
2022/05/26 10:38:10;;;;;;;2.02;1.20;;;;;;;19.67;47.06;100660.83;1704762;82;21047;-69
2022/05/26 10:41:03;;;;;;;7.58;1.10;;;;;;;19.55;47.37;100659.09;1733650;81;21370;-70
2022/05/26 10:43:42;;;;;;;2.20;1.20;;;;;;;19.51;47.64;100663.28;1734487;81;21037;-69
2022/05/26 10:46:09;;;;;;;1.47;0.82;;;;;;;19.71;47.92;100658.51;1738432;81;21124;-68
2022/05/26 10:48:56;;;;;;;3.60;1.00;;;;;;;20.44;48.05;100657.50;1745437;81;21170;-69
2022/05/26 10:51:50;;;;;;;9.30;1.30;;;;;;;20.96;47.89;100659.20;1733471;81;20988;-69
2022/05/26 10:54:27;;;;;;;2.35;1.05;;;;;;;21.10;47.44;100651.69;1740026;81;21051;-69
2022/05/26 10:57:09;;;;;;;6.53;0.88;;;;;;;21.39;47.41;100643.48;1739861;81;21101;-69
2022/05/26 10:59:45;;;;;;;5.20;0.78;;;;;;;21.47;47.12;100640.13;1750177;81;21055;-69
2022/05/26 11:02:35;;;;;;;3.87;1.05;;;;;;;20.94;46.76;100640.95;1733407;82;21371;-69
2022/05/26 11:05:17;;;;;;;;;;;;;;;20.38;46.74;100650.28;1733141;82;20992;-69
2022/05/26 11:07:53;;;;;;;5.33;2.12;;;;;;;19.99;47.00;100664.26;1699803;82;20168;-70
2022/05/26 11:10:45;;;;;;;6.83;1.72;;;;;;;19.71;47.29;100666.63;1740939;80;21065;-69
2022/05/26 11:13:26;;;;;;;4.83;1.40;;;;;;;19.71;47.63;100667.98;1692862;82;21140;-69
2022/05/26 11:18:51;;;;;;;5.03;1.40;;;;;;;20.18;48.01;100664.58;1716042;82;21018;-70
2022/05/26 11:21:20;;;;;;;3.65;0.80;;;;;;;20.31;47.97;100673.92;1687170;83;21014;-69
2022/05/26 11:23:46;;;;;;;7.03;1.12;;;;;;;20.26;47.88;100662.92;1686453;83;21038;-69
2022/05/26 11:26:54;;;;;;;7.58;2.15;;;;;;;20.22;47.95;100667.13;1719130;82;21072;-69
2022/05/26 11:29:25;;;;;;;16.67;2.20;;;;;;;20.25;47.90;100673.45;1742223;81;21077;-69
2022/05/26 11:37:39;;;;;;;1.62;0.80;;;;;;;19.15;48.57;100683.71;1726522;82;21542;-69
2022/05/26 11:40:11;;;;;;;7.12;1.50;;;;;;;19.00;48.90;100675.07;1712195;81;49748;-69
2022/05/26 11:42:49;;;;;;;1.80;1.32;;;;;;;18.89;49.01;100685.25;1732426;81;21154;-69
2022/05/26 11:45:19;;;;;;;1.52;1.07;;;;;;;18.71;49.29;100691.89;1733613;81;21027;-69
2022/05/26 11:48:23;;;;;;;6.42;1.20;;;;;;;18.42;49.77;100698.12;1732725;81;21116;-69
2022/05/26 11:51:23;;;;;;;2.60;0.85;;;;;;;18.22;50.25;100696.02;1734439;81;21021;-68
2022/05/26 11:53:49;;;;;;;1.57;1.22;;;;;;;17.97;50.86;100693.69;1752458;82;21128;-68
2022/05/26 11:56:30;;;;;;;2.55;1.10;;;;;;;17.98;51.45;100696.67;1728868;82;21008;-69
2022/05/26 11:59:27;;;;;;;12.82;2.90;;;;;;;18.51;51.96;100696.57;1720269;82;21081;-69
2022/05/26 12:02:07;;;;;;;4.33;1.85;;;;;;;18.88;52.06;100698.45;1743553;81;21002;-69
2022/05/26 12:04:42;;;;;;;1.52;1.22;;;;;;;18.96;52.29;100690.90;1731363;82;21065;-68
2022/05/26 12:07:22;;;;;;;4.20;1.90;;;;;;;18.92;52.52;100686.16;1735519;81;21513;-69
2022/05/26 12:09:57;;;;;;;3.50;1.60;;;;;;;18.86;52.75;100687.02;1733065;81;21704;-69
2022/05/26 12:12:30;;;;;;;3.98;1.85;;;;;;;18.96;52.99;100683.34;1681885;83;21057;-69
2022/05/26 12:15:18;;;;;;;1.27;1.17;;;;;;;19.27;53.20;100683.33;1686208;83;21058;-69
2022/05/26 12:17:52;;;;;;;3.45;1.50;;;;;;;19.61;53.21;100682.55;1709509;83;21007;-69
2022/05/26 12:20:24;;;;;;;10.23;1.90;;;;;;;19.90;53.17;100668.32;1727206;83;21209;-69
2022/05/26 12:22:56;;;;;;;5.45;2.20;;;;;;;19.91;52.96;100664.57;1712785;81;21103;-69
2022/05/26 12:25:30;;;;;;;4.20;1.70;;;;;;;19.78;52.84;100666.03;1702400;82;21050;-69
2022/05/26 12:28:29;;;;;;;7.65;1.42;;;;;;;19.67;52.78;100665.41;1728192;81;21061;-68
2022/05/26 12:31:00;;;;;;;4.58;1.50;;;;;;;19.62;52.77;100668.81;1729167;82;21017;-68